createdAt,value
2023-04-04T00:00:45.693Z,17.73
2023-04-04T00:03:19.477Z,17.23
2023-04-04T00:05:52.753Z,18.67
2023-04-04T00:08:26.420Z,19.73
2023-04-04T00:11:01.549Z,18.37
2023-04-04T00:13:35.100Z,17.10
2023-04-04T00:16:10.235Z,16.77
2023-04-04T00:18:43.590Z,16.48
2023-04-04T00:21:16.979Z,18.07
2023-04-04T00:23:50.143Z,18.05
2023-04-04T00:26:23.095Z,19.20
2023-04-04T00:28:56.556Z,18.60
2023-04-04T00:31:30.081Z,18.90
2023-04-04T00:34:03.390Z,17.52
2023-04-04T00:36:36.641Z,19.32
2023-04-04T00:39:10.130Z,18.12
2023-04-04T00:41:43.303Z,20.37
2023-04-04T00:44:16.776Z,19.00
2023-04-04T00:46:50.470Z,18.73
2023-04-04T00:49:23.489Z,20.27
2023-04-04T00:51:56.946Z,19.02
2023-04-04T00:54:31.521Z,18.27
2023-04-04T00:57:07.154Z,18.27
2023-04-04T00:59:40.247Z,18.62
2023-04-04T01:02:13.624Z,19.70
2023-04-04T01:04:47.345Z,19.35
2023-04-04T01:07:21.123Z,19.35
2023-04-04T01:09:56.931Z,19.90
2023-04-04T01:12:30.269Z,19.00
2023-04-04T01:15:04.223Z,19.27
2023-04-04T01:17:39.021Z,20.15
2023-04-04T01:20:15.973Z,19.30
2023-04-04T01:22:53.091Z,20.55
2023-04-04T01:25:31.974Z,18.92
2023-04-04T01:28:07.536Z,18.42
2023-04-04T01:30:43.832Z,19.15
2023-04-04T01:33:21.301Z,19.00
2023-04-04T01:35:57.285Z,17.50
2023-04-04T01:38:33.928Z,16.45
2023-04-04T01:41:10.360Z,17.20
2023-04-04T01:43:48.096Z,17.45
2023-04-04T01:46:22.504Z,17.45
2023-04-04T01:48:56.276Z,17.00
2023-04-04T01:51:32.027Z,14.73
2023-04-04T01:54:05.718Z,15.48
2023-04-04T01:56:39.075Z,16.32
2023-04-04T01:59:12.317Z,16.20
2023-04-04T02:01:45.591Z,16.67
2023-04-04T02:04:18.870Z,16.37
2023-04-04T02:06:52.815Z,16.00
2023-04-04T02:09:26.345Z,14.87
2023-04-04T02:11:59.979Z,17.02
2023-04-04T02:14:33.408Z,15.40
2023-04-04T02:17:07.692Z,16.37
2023-04-04T02:19:40.968Z,17.05
2023-04-04T02:22:14.062Z,18.05
2023-04-04T02:24:47.157Z,15.63
2023-04-04T02:27:20.588Z,17.42
2023-04-04T02:29:55.389Z,17.05
2023-04-04T02:32:28.729Z,16.82
2023-04-04T02:35:02.326Z,16.25
2023-04-04T02:37:35.209Z,17.65
2023-04-04T02:40:11.464Z,15.65
2023-04-04T02:42:48.275Z,15.40
2023-04-04T02:45:21.471Z,15.45
2023-04-04T02:47:56.488Z,14.85
2023-04-04T02:50:31.425Z,14.83
2023-04-04T02:53:05.950Z,15.40
2023-04-04T02:55:39.651Z,14.98
2023-04-04T02:58:13.273Z,15.95
2023-04-04T03:00:47.658Z,14.75
2023-04-04T03:03:21.099Z,15.68
2023-04-04T03:05:54.746Z,14.40
2023-04-04T03:08:28.791Z,15.13
2023-04-04T03:11:03.691Z,16.00
2023-04-04T03:13:37.020Z,15.32
2023-04-04T03:16:11.890Z,15.15
2023-04-04T03:18:50.083Z,14.90
2023-04-04T03:21:25.132Z,14.47
2023-04-04T03:24:00.014Z,15.25
2023-04-04T03:26:33.413Z,16.32
2023-04-04T03:29:07.368Z,15.63
2023-04-04T03:31:41.744Z,14.23
2023-04-04T03:34:15.839Z,16.75
2023-04-04T03:36:49.114Z,16.57
2023-04-04T03:39:22.397Z,16.67
2023-04-04T03:41:56.469Z,16.67
2023-04-04T03:44:30.154Z,16.48
2023-04-04T03:47:03.551Z,16.27
2023-04-04T03:49:38.540Z,16.70
2023-04-04T03:52:12.286Z,16.40
2023-04-04T03:54:45.690Z,17.23
2023-04-04T03:57:19.112Z,16.52
2023-04-04T03:59:52.544Z,19.48
2023-04-04T04:02:27.601Z,18.73
2023-04-04T04:05:00.897Z,17.75
2023-04-04T04:07:34.074Z,19.73
2023-04-04T04:10:08.919Z,22.02
2023-04-04T04:12:42.537Z,20.30
2023-04-04T04:15:16.161Z,20.00
2023-04-04T04:17:49.768Z,17.82
2023-04-04T04:20:23.870Z,16.45
2023-04-04T04:22:57.860Z,18.20
2023-04-04T04:25:31.426Z,17.05
2023-04-04T04:28:06.401Z,16.25
2023-04-04T04:30:39.861Z,15.65
2023-04-04T04:33:13.820Z,15.23
2023-04-04T04:35:54.357Z,15.23
2023-04-04T04:38:28.697Z,15.60
2023-04-04T04:41:02.657Z,14.45
2023-04-04T04:43:37.766Z,14.95
2023-04-04T04:46:11.248Z,13.83
2023-04-04T04:48:44.669Z,14.38
2023-04-04T04:51:18.436Z,13.88
2023-04-04T04:53:53.323Z,15.80
2023-04-04T04:56:27.378Z,13.80
2023-04-04T04:59:02.267Z,13.25
2023-04-04T05:01:35.301Z,13.45
2023-04-04T05:04:09.667Z,13.10
2023-04-04T05:06:44.588Z,13.65
2023-04-04T05:09:18.572Z,14.35
2023-04-04T05:11:52.063Z,13.55
2023-04-04T05:14:27.713Z,12.85
2023-04-04T05:17:02.147Z,14.45
2023-04-04T05:19:37.174Z,14.18
2023-04-04T05:22:10.652Z,13.28
2023-04-04T05:24:45.706Z,12.75
2023-04-04T05:27:20.639Z,12.50
2023-04-04T05:29:56.105Z,12.23
2023-04-04T05:32:30.225Z,12.10
2023-04-04T05:35:05.417Z,12.50
2023-04-04T05:37:42.739Z,13.22
2023-04-04T05:40:18.442Z,11.78
2023-04-04T05:42:59.572Z,11.20
2023-04-04T05:45:34.864Z,11.80
2023-04-04T05:48:08.441Z,11.57
2023-04-04T05:50:44.779Z,10.38
2023-04-04T05:53:18.372Z,9.50
2023-04-04T05:55:55.012Z,11.08
2023-04-04T05:58:29.862Z,10.70
2023-04-04T06:01:03.621Z,11.08
2023-04-04T06:03:37.023Z,10.08
2023-04-04T06:06:12.194Z,10.35
2023-04-04T06:08:53.511Z,8.68
2023-04-04T06:11:21.915Z,8.68
2023-04-04T06:13:55.309Z,9.55
2023-04-04T06:16:30.288Z,8.40
2023-04-04T06:19:03.841Z,9.03
2023-04-04T06:21:37.170Z,8.80
2023-04-04T06:24:11.396Z,8.45
2023-04-04T06:26:45.641Z,8.03
2023-04-04T06:29:19.081Z,7.50
2023-04-04T06:31:53.188Z,7.97
2023-04-04T06:34:28.452Z,7.65
2023-04-04T06:37:03.688Z,8.35
2023-04-04T06:39:38.625Z,7.28
2023-04-04T06:42:13.508Z,8.35
2023-04-04T06:44:49.088Z,7.47
2023-04-04T06:47:22.790Z,7.50
2023-04-04T06:49:56.672Z,7.67
2023-04-04T06:52:30.473Z,7.33
2023-04-04T06:55:04.407Z,7.90
2023-04-04T06:57:38.560Z,8.03
2023-04-04T07:00:14.373Z,7.62
2023-04-04T07:02:47.732Z,7.03
2023-04-04T07:05:21.096Z,7.20
2023-04-04T07:07:57.127Z,6.67
2023-04-04T07:10:30.711Z,6.78
2023-04-04T07:13:04.385Z,7.87
2023-04-04T07:15:38.174Z,7.12
2023-04-04T07:18:12.547Z,7.53
2023-04-04T07:20:48.194Z,7.20
2023-04-04T07:23:21.649Z,6.25
2023-04-04T07:25:55.066Z,6.25
2023-04-04T07:28:28.323Z,6.72
2023-04-04T07:31:03.604Z,6.50
2023-04-04T07:33:36.798Z,6.60
2023-04-04T07:36:10.312Z,7.40
2023-04-04T07:38:43.562Z,6.75
2023-04-04T07:41:16.824Z,7.47
2023-04-04T07:43:50.202Z,6.55
2023-04-04T07:46:23.694Z,6.28
2023-04-04T07:48:57.209Z,6.40
2023-04-04T07:51:31.544Z,6.80
2023-04-04T07:54:04.527Z,6.47
2023-04-04T07:56:37.553Z,7.08
2023-04-04T07:59:10.708Z,7.33
2023-04-04T08:01:46.133Z,6.65
2023-04-04T08:04:20.043Z,7.00
2023-04-04T08:06:53.245Z,7.10
2023-04-04T08:09:28.237Z,5.62
2023-04-04T08:12:01.666Z,6.28
2023-04-04T08:14:34.707Z,6.00
2023-04-04T08:17:08.267Z,5.97
2023-04-04T08:19:41.305Z,5.72
2023-04-04T08:22:14.821Z,6.33
2023-04-04T08:24:47.978Z,6.53
2023-04-04T08:27:20.975Z,7.00
2023-04-04T08:29:54.942Z,7.22
2023-04-04T08:32:28.067Z,7.12
2023-04-04T08:35:01.244Z,6.60
2023-04-04T08:37:35.590Z,7.17
2023-04-04T08:40:10.649Z,6.67
2023-04-04T08:42:46.105Z,7.47
2023-04-04T08:45:22.749Z,6.50
2023-04-04T08:47:59.276Z,6.75
2023-04-04T08:50:33.733Z,5.55
2023-04-04T08:53:07.929Z,6.05
2023-04-04T08:55:42.558Z,5.53
2023-04-04T08:58:17.471Z,5.78
2023-04-04T09:00:52.092Z,6.03
2023-04-04T09:03:27.629Z,7.53
2023-04-04T09:06:01.243Z,8.43
2023-04-04T09:08:34.423Z,8.95
2023-04-04T09:11:07.976Z,6.08
2023-04-04T09:13:42.301Z,6.25
2023-04-04T09:16:16.048Z,5.55
2023-04-04T09:18:49.002Z,5.15
2023-04-04T09:21:22.405Z,4.72
2023-04-04T09:24:02.216Z,5.65
2023-04-04T09:26:49.157Z,6.03
2023-04-04T09:29:22.787Z,5.30
2023-04-04T09:31:56.062Z,5.78
2023-04-04T09:34:31.919Z,5.72
2023-04-04T09:37:06.356Z,5.58
2023-04-04T09:39:41.054Z,4.72
2023-04-04T09:42:14.380Z,5.22
2023-04-04T09:44:47.298Z,5.40
2023-04-04T09:47:42.888Z,4.55
2023-04-04T09:50:20.199Z,4.60
2023-04-04T09:52:55.412Z,4.58
2023-04-04T09:55:36.716Z,4.92
2023-04-04T09:58:20.403Z,5.45
2023-04-04T10:00:56.243Z,5.42
2023-04-04T10:03:30.037Z,5.75
2023-04-04T10:06:07.199Z,5.45
2023-04-04T10:08:42.278Z,5.53
2023-04-04T10:11:16.846Z,5.12
2023-04-04T10:13:51.413Z,4.92
2023-04-04T10:16:26.789Z,5.85
2023-04-04T10:19:00.394Z,5.25
2023-04-04T10:21:33.288Z,5.03
2023-04-04T10:24:09.874Z,5.95
2023-04-04T10:26:43.482Z,4.87
2023-04-04T10:29:16.580Z,5.95
2023-04-04T10:31:50.962Z,6.50
2023-04-04T10:34:29.545Z,5.97
2023-04-04T10:37:12.823Z,5.35
2023-04-04T10:39:48.278Z,5.08
2023-04-04T10:42:21.850Z,5.83
2023-04-04T10:44:55.690Z,5.35
2023-04-04T10:47:30.847Z,4.92
2023-04-04T10:50:06.586Z,5.67
2023-04-04T10:52:42.230Z,5.72
2023-04-04T10:55:17.336Z,4.83
2023-04-04T10:57:54.598Z,5.78
2023-04-04T11:00:29.950Z,6.85
2023-04-04T11:03:05.341Z,5.95
2023-04-04T11:05:43.577Z,5.97
2023-04-04T11:08:20.130Z,7.05
2023-04-04T11:10:54.570Z,6.40
2023-04-04T11:13:30.842Z,5.80
2023-04-04T11:16:10.007Z,6.20
2023-04-04T11:18:49.330Z,6.95
2023-04-04T11:21:25.195Z,6.17
2023-04-04T11:24:17.729Z,6.17
2023-04-04T11:26:51.347Z,6.72
2023-04-04T11:29:28.130Z,6.75
2023-04-04T11:32:01.550Z,6.53
2023-04-04T11:34:36.863Z,6.45
2023-04-04T11:37:20.128Z,6.60
2023-04-04T11:39:55.560Z,8.43
2023-04-04T11:42:37.610Z,7.12
2023-04-04T11:45:11.516Z,7.60
2023-04-04T11:47:48.204Z,7.83
2023-04-04T11:50:22.374Z,7.15
2023-04-04T11:52:56.566Z,7.37
2023-04-04T11:55:29.742Z,7.65
2023-04-04T11:58:13.662Z,7.42
2023-04-04T12:00:48.089Z,7.95
2023-04-04T12:03:21.876Z,6.80
2023-04-04T12:05:55.328Z,7.55
2023-04-04T12:08:29.454Z,8.20
2023-04-04T12:11:09.535Z,7.90
2023-04-04T12:13:46.075Z,7.40
2023-04-04T12:16:20.818Z,7.87
2023-04-04T12:18:54.073Z,7.78
2023-04-04T12:21:27.870Z,8.98
2023-04-04T12:24:01.428Z,8.63
2023-04-04T12:26:35.270Z,7.85
2023-04-04T12:29:09.617Z,8.95
2023-04-04T12:31:45.301Z,8.50
2023-04-04T12:34:23.466Z,7.83
2023-04-04T12:36:58.746Z,7.75
2023-04-04T12:39:32.742Z,7.87
2023-04-04T12:42:07.707Z,7.62
2023-04-04T12:44:41.772Z,8.48
2023-04-04T12:47:18.100Z,9.33
2023-04-04T12:49:54.346Z,8.80
2023-04-04T12:55:11.130Z,8.78
2023-04-04T12:57:46.278Z,9.30
2023-04-04T13:00:22.934Z,9.13
2023-04-04T13:02:56.476Z,7.92
2023-04-04T13:05:29.719Z,8.85
2023-04-04T13:08:10.439Z,7.92
2023-04-04T13:11:06.781Z,9.50
2023-04-04T13:13:41.289Z,9.95
2023-04-04T13:16:17.355Z,9.13
2023-04-04T13:18:50.737Z,10.18
2023-04-04T13:21:24.294Z,10.00
2023-04-04T13:23:57.794Z,8.70
2023-04-04T13:26:31.413Z,9.18
2023-04-04T13:29:04.629Z,9.53
2023-04-04T13:31:38.127Z,10.23
2023-04-04T13:34:11.257Z,9.55
2023-04-04T13:36:45.053Z,9.00
2023-04-04T13:39:18.440Z,8.53
2023-04-04T13:41:51.763Z,9.80
2023-04-04T13:44:26.778Z,10.55
2023-04-04T13:47:00.111Z,9.25
2023-04-04T13:49:33.383Z,9.55
2023-04-04T13:52:07.316Z,9.43
2023-04-04T13:54:40.372Z,9.05
2023-04-04T13:57:14.113Z,9.28
2023-04-04T13:59:47.949Z,9.53
2023-04-04T14:02:21.337Z,8.73
2023-04-04T14:04:55.084Z,8.95
2023-04-04T14:07:28.790Z,9.53
2023-04-04T14:10:02.213Z,8.45
2023-04-04T14:12:35.630Z,8.60
2023-04-04T14:15:11.607Z,9.05
2023-04-04T14:17:46.033Z,9.43
2023-04-04T14:20:19.965Z,8.65
2023-04-04T14:22:53.515Z,8.83
2023-04-04T14:25:26.989Z,9.20
2023-04-04T14:28:00.661Z,9.00
2023-04-04T14:30:34.216Z,10.15
2023-04-04T14:33:08.172Z,9.23
2023-04-04T14:35:42.580Z,9.33
2023-04-04T14:38:16.555Z,10.25
2023-04-04T14:40:50.348Z,9.63
2023-04-04T14:43:24.507Z,9.20
2023-04-04T14:45:58.126Z,11.25
2023-04-04T14:48:32.010Z,9.95
2023-04-04T14:51:05.853Z,9.43
2023-04-04T14:53:39.514Z,10.60
2023-04-04T14:56:13.160Z,9.88
2023-04-04T14:58:47.056Z,10.58
2023-04-04T15:01:22.019Z,9.45
2023-04-04T15:03:56.433Z,9.58
2023-04-04T15:06:31.646Z,9.55
2023-04-04T15:09:06.113Z,10.93
2023-04-04T15:11:39.669Z,8.80
2023-04-04T15:14:13.309Z,8.43
2023-04-04T15:16:46.926Z,9.03
2023-04-04T15:19:21.066Z,8.80
2023-04-04T15:21:57.448Z,9.55
2023-04-04T15:24:31.116Z,8.50
2023-04-04T15:27:04.940Z,9.30
2023-04-04T15:29:38.214Z,7.60
2023-04-04T15:32:11.714Z,6.90
2023-04-04T15:34:45.450Z,7.33
2023-04-04T15:37:19.239Z,7.10
2023-04-04T15:39:53.963Z,6.60
2023-04-04T15:42:29.299Z,5.42
2023-04-04T15:45:03.929Z,6.83
2023-04-04T15:47:38.332Z,5.80
2023-04-04T15:50:12.894Z,5.70
2023-04-04T15:52:52.987Z,5.75
2023-04-04T15:55:32.209Z,6.15
2023-04-04T15:58:08.213Z,5.92
2023-04-04T16:00:46.273Z,6.37
2023-04-04T16:03:24.369Z,6.45
2023-04-04T16:06:03.976Z,6.40
2023-04-04T16:08:40.430Z,5.87
2023-04-04T16:11:15.652Z,6.62
2023-04-04T16:13:51.676Z,7.90
2023-04-04T16:16:25.602Z,6.90
2023-04-04T16:18:59.435Z,7.53
2023-04-04T16:21:33.517Z,7.47
2023-04-04T16:24:08.333Z,7.85
2023-04-04T16:26:43.585Z,7.47
2023-04-04T16:29:18.653Z,8.08
2023-04-04T16:31:57.300Z,8.75
2023-04-04T16:34:31.011Z,8.15
2023-04-04T16:37:04.785Z,8.00
2023-04-04T16:39:38.492Z,8.68
2023-04-04T16:42:12.233Z,7.65
2023-04-04T16:44:45.758Z,8.93
2023-04-04T16:47:19.449Z,8.63
2023-04-04T16:49:52.924Z,8.35
2023-04-04T16:52:26.501Z,9.13
2023-04-04T16:54:59.890Z,9.93
2023-04-04T16:57:34.816Z,10.53
2023-04-04T17:00:10.828Z,9.73
2023-04-04T17:02:46.228Z,9.93
2023-04-04T17:05:20.001Z,9.80
2023-04-04T17:07:53.251Z,10.38
2023-04-04T17:10:26.975Z,10.28
2023-04-04T17:13:00.705Z,11.22
2023-04-04T17:15:34.708Z,8.90
2023-04-04T17:18:08.673Z,10.32
2023-04-04T17:20:43.717Z,9.70
2023-04-04T17:23:21.170Z,9.35
2023-04-04T17:25:54.945Z,10.30
2023-04-04T17:28:28.465Z,11.48
2023-04-04T17:31:02.554Z,10.48
2023-04-04T17:33:36.122Z,11.50
2023-04-04T17:36:10.125Z,11.38
2023-04-04T17:38:43.516Z,11.97
2023-04-04T17:41:17.012Z,12.73
2023-04-04T17:43:51.054Z,14.15
2023-04-04T17:46:25.673Z,12.73
2023-04-04T17:48:59.232Z,12.98
2023-04-04T17:51:34.008Z,12.70
2023-04-04T17:54:08.580Z,10.72
2023-04-04T17:56:43.832Z,10.82
2023-04-04T17:59:17.830Z,11.30
2023-04-04T18:01:51.666Z,10.90
2023-04-04T18:04:25.568Z,10.23
2023-04-04T18:06:59.943Z,9.50
2023-04-04T18:09:34.043Z,9.35
2023-04-04T18:12:08.202Z,9.60
2023-04-04T18:14:41.855Z,9.95
2023-04-04T18:17:15.541Z,8.98
2023-04-04T18:19:49.090Z,9.23
2023-04-04T18:22:23.223Z,9.88
2023-04-04T18:24:57.637Z,10.25
2023-04-04T18:27:31.745Z,10.75
2023-04-04T18:30:05.808Z,9.33
2023-04-04T18:32:39.675Z,10.38
2023-04-04T18:35:14.815Z,8.60
2023-04-04T18:37:48.381Z,8.73
2023-04-04T18:40:22.084Z,10.50
2023-04-04T18:42:55.627Z,9.90
2023-04-04T18:45:39.377Z,10.60
2023-04-04T18:48:08.676Z,9.58
2023-04-04T18:50:42.774Z,10.63
2023-04-04T18:53:16.485Z,10.70
2023-04-04T18:55:50.012Z,10.50
2023-04-04T18:58:24.238Z,10.98
2023-04-04T19:00:58.834Z,10.93
2023-04-04T19:03:34.851Z,9.58
2023-04-04T19:06:10.459Z,10.18
2023-04-04T19:08:44.943Z,9.63
2023-04-04T19:11:18.744Z,10.48
2023-04-04T19:13:52.839Z,10.25
2023-04-04T19:16:26.517Z,10.20
2023-04-04T19:19:00.385Z,9.95
2023-04-04T19:21:34.339Z,8.78
2023-04-04T19:24:09.091Z,8.75
2023-04-04T19:26:42.869Z,10.63
2023-04-04T19:29:19.696Z,11.73
2023-04-04T19:31:55.558Z,9.13
2023-04-04T19:34:30.693Z,9.78
2023-04-04T19:37:04.304Z,9.75
2023-04-04T19:39:39.265Z,9.90
2023-04-04T19:42:13.405Z,10.10
2023-04-04T19:44:46.960Z,9.63
2023-04-04T19:47:22.093Z,10.45
2023-04-04T19:49:56.288Z,9.93
2023-04-04T19:52:29.809Z,10.90
2023-04-04T19:55:06.168Z,10.88
2023-04-04T19:57:40.864Z,10.68
2023-04-04T20:00:18.448Z,11.18
2023-04-04T20:02:57.523Z,11.28
2023-04-04T20:06:03.163Z,9.90
2023-04-04T20:08:41.207Z,9.98
2023-04-04T20:11:15.228Z,8.83
2023-04-04T20:13:49.000Z,8.40
2023-04-04T20:16:23.234Z,9.03
2023-04-04T20:18:58.516Z,9.33
2023-04-04T20:21:32.580Z,8.58
2023-04-04T20:24:08.964Z,9.45
2023-04-04T20:26:46.724Z,7.53
2023-04-04T20:29:22.673Z,8.58
2023-04-04T20:31:58.155Z,8.10
2023-04-04T20:34:42.731Z,7.35
2023-04-04T20:37:20.326Z,7.12
2023-04-04T20:39:57.263Z,7.33
2023-04-04T20:42:41.514Z,8.70
2023-04-04T20:45:47.035Z,8.00
2023-04-04T20:48:38.858Z,8.40
2023-04-04T20:51:24.694Z,8.40
2023-04-04T20:54:00.302Z,7.78
2023-04-04T20:56:55.230Z,8.58
2023-04-04T20:59:37.905Z,8.68
2023-04-04T21:02:17.082Z,9.23
2023-04-04T21:04:52.236Z,8.78
2023-04-04T21:07:39.390Z,8.13
2023-04-04T21:10:28.665Z,8.65
2023-04-04T21:13:03.197Z,8.43
2023-04-04T21:15:38.631Z,8.70
2023-04-04T21:18:13.610Z,8.98
2023-04-04T21:21:18.935Z,9.23
2023-04-04T21:23:54.405Z,9.30
2023-04-04T21:26:35.551Z,8.38
2023-04-04T21:29:11.516Z,8.78
2023-04-04T21:31:46.914Z,9.58
2023-04-04T21:34:22.100Z,9.93
2023-04-04T21:36:57.158Z,9.85
2023-04-04T21:39:31.833Z,8.40
2023-04-04T21:42:08.840Z,9.60
2023-04-04T21:44:41.717Z,9.28
2023-04-04T21:47:15.889Z,8.48
2023-04-04T21:49:49.373Z,9.58
2023-04-04T21:52:23.041Z,10.50
2023-04-04T21:54:56.633Z,9.25
2023-04-04T21:57:30.029Z,9.73
2023-04-04T22:00:03.943Z,8.65
2023-04-04T22:02:37.484Z,9.25
2023-04-04T22:05:12.192Z,9.73
2023-04-04T22:07:46.116Z,10.30
2023-04-04T22:10:21.662Z,10.30
2023-04-04T22:12:57.401Z,10.05
2023-04-04T22:15:30.964Z,10.58
2023-04-04T22:18:05.246Z,9.93
2023-04-04T22:20:39.244Z,10.00
2023-04-04T22:23:15.539Z,10.70
2023-04-04T22:25:49.200Z,11.20
2023-04-04T22:28:24.932Z,10.82
2023-04-04T22:30:58.776Z,10.55
2023-04-04T22:33:34.988Z,10.23
2023-04-04T22:36:10.245Z,11.93
2023-04-04T22:38:44.156Z,10.50
2023-04-04T22:41:17.765Z,11.30
2023-04-04T22:43:51.186Z,10.43
2023-04-04T22:46:26.004Z,12.10
2023-04-04T22:49:06.781Z,10.80
2023-04-04T22:51:45.943Z,10.20
2023-04-04T22:54:20.938Z,10.60
2023-04-04T22:56:54.518Z,10.70
2023-04-04T22:59:28.110Z,10.88
2023-04-04T23:02:01.328Z,10.72
2023-04-04T23:04:35.273Z,11.70
2023-04-04T23:07:09.077Z,12.05
2023-04-04T23:09:42.665Z,11.55
2023-04-04T23:12:16.558Z,11.38
2023-04-04T23:14:50.126Z,11.55
2023-04-04T23:17:23.785Z,11.70
2023-04-04T23:19:57.258Z,10.85
2023-04-04T23:22:31.545Z,10.38
2023-04-04T23:25:06.616Z,11.97
2023-04-04T23:27:40.917Z,11.33
2023-04-04T23:30:15.571Z,11.68
2023-04-04T23:32:49.040Z,12.25
2023-04-04T23:35:22.538Z,12.43
2023-04-04T23:37:56.474Z,12.98
2023-04-04T23:40:30.129Z,13.10
2023-04-04T23:43:03.868Z,12.25
2023-04-04T23:45:40.128Z,12.25
2023-04-04T23:48:13.634Z,12.45
2023-04-04T23:50:47.277Z,12.25
2023-04-04T23:53:20.926Z,12.73
2023-04-04T23:55:54.060Z,12.05
2023-04-04T23:58:27.428Z,13.25
